createdAt,value
2018-08-23T00:04:05.521Z,13.9
2018-08-23T00:09:07.862Z,10.9
2018-08-23T00:14:09.964Z,7.6
2018-08-23T00:19:12.473Z,9.5
2018-08-23T00:24:14.595Z,9.5
2018-08-23T00:29:16.856Z,8.8
2018-08-23T00:34:19.165Z,14
2018-08-23T00:39:21.536Z,7.3
2018-08-23T00:44:23.808Z,6
2018-08-23T00:49:26.069Z,15
2018-08-23T00:54:28.364Z,10.7
2018-08-23T00:59:30.689Z,9.2
2018-08-23T01:04:32.892Z,12.3
2018-08-23T01:09:35.236Z,13
2018-08-23T01:14:37.488Z,20.5
2018-08-23T01:19:39.749Z,18.9
2018-08-23T01:24:42.144Z,15.2
2018-08-23T01:29:45.871Z,18.700001
2018-08-23T01:34:46.686Z,18.799999
2018-08-23T01:39:48.972Z,28.200001
2018-08-23T01:44:51.399Z,23.4
2018-08-23T01:49:53.580Z,22.6
2018-08-23T01:54:55.840Z,19.799999
2018-08-23T01:59:59.600Z,22.6
2018-08-23T02:05:00.396Z,17.4
2018-08-23T02:10:02.844Z,23.700001
2018-08-23T02:15:05.076Z,24.4
2018-08-23T02:20:07.345Z,18
2018-08-23T02:25:09.807Z,36.200001
2018-08-23T02:30:12.005Z,16.9
2018-08-23T02:35:14.211Z,39.299999
2018-08-23T02:40:17.121Z,17.700001
2018-08-23T02:45:18.919Z,14.1
2018-08-23T02:50:21.063Z,19.4
2018-08-23T02:55:23.416Z,17.700001
2018-08-23T03:00:25.718Z,19.5
2018-08-23T03:05:27.947Z,34
2018-08-23T03:10:30.284Z,16
2018-08-23T03:15:32.628Z,16.700001
2018-08-23T03:20:34.904Z,17
2018-08-23T03:25:37.267Z,18.799999
2018-08-23T03:30:39.462Z,16.299999
2018-08-23T03:35:41.901Z,18.799999
2018-08-23T03:40:44.179Z,15.4
2018-08-23T03:45:46.367Z,12.1
2018-08-23T03:50:49.832Z,23
2018-08-23T03:55:50.969Z,17.1
2018-08-23T04:00:53.290Z,14.8
2018-08-23T04:05:55.535Z,21.700001
2018-08-23T04:10:57.846Z,13.8
2018-08-23T04:16:00.117Z,22
2018-08-23T04:21:02.390Z,12.5
2018-08-23T04:26:04.689Z,14.2
2018-08-23T04:31:07.283Z,21.5
2018-08-23T04:36:09.331Z,11.1
2018-08-23T04:41:14.523Z,10.6
2018-08-23T04:46:13.877Z,12
2018-08-23T04:51:16.127Z,24.1
2018-08-23T04:56:18.553Z,16.700001
2018-08-23T05:01:20.794Z,11.7
2018-08-23T05:06:22.969Z,15.5
2018-08-23T05:11:25.334Z,15.8
2018-08-23T05:16:27.656Z,17.1
2018-08-23T05:21:29.894Z,15.5
2018-08-23T05:26:33.687Z,12.3
2018-08-23T05:31:34.759Z,19.299999
2018-08-23T05:36:37.003Z,19.9
2018-08-23T05:41:39.186Z,34.299999
2018-08-23T05:46:41.365Z,19.700001
2018-08-23T05:51:43.701Z,19.299999
2018-08-23T05:56:45.968Z,20.1
2018-08-23T06:01:48.338Z,28.6
2018-08-23T06:06:50.601Z,13.6
2018-08-23T06:11:52.918Z,9.5
2018-08-23T06:16:55.238Z,17.1
2018-08-23T06:21:57.415Z,35.299999
2018-08-23T06:26:59.853Z,10.3
2018-08-23T06:32:02.162Z,14.8
2018-08-23T06:37:05.699Z,14.4
2018-08-23T06:42:06.685Z,12.6
2018-08-23T06:47:09.044Z,17.4
2018-08-23T06:52:11.338Z,56
2018-08-23T06:57:13.481Z,9.6
2018-08-23T07:02:15.855Z,12
2018-08-23T07:12:24.662Z,11.7
2018-08-23T07:17:27.052Z,25.799999
2018-08-23T07:22:29.246Z,12.7
2018-08-23T07:27:31.648Z,6.1
2018-08-23T07:32:34.875Z,14.8
2018-08-23T07:37:37.278Z,16.9
2018-08-23T07:42:38.456Z,12
2018-08-23T07:47:40.743Z,23.799999
2018-08-23T07:52:43.031Z,10.3
2018-08-23T07:57:45.431Z,14.1
2018-08-23T08:02:47.618Z,13.1
2018-08-23T08:07:49.914Z,9.8
2018-08-23T08:12:52.230Z,12.3
2018-08-23T08:17:54.453Z,9.8
2018-08-23T08:22:56.882Z,9.2
2018-08-23T08:33:01.361Z,8.8
2018-08-23T08:38:03.738Z,8.3
2018-08-23T08:43:05.978Z,11.9
2018-08-23T08:48:08.245Z,8.1
2018-08-23T08:53:10.501Z,13.4
2018-08-23T08:58:12.947Z,9.3
2018-08-23T09:03:15.144Z,4.1
2018-08-23T09:08:17.417Z,5.2
2018-08-23T09:13:19.889Z,7.2
2018-08-23T09:18:22.003Z,7.8
2018-08-23T09:23:24.295Z,6.7
2018-08-23T09:28:26.544Z,9.1
2018-08-23T09:33:28.924Z,9.3
2018-08-23T09:38:31.306Z,7
2018-08-23T09:43:33.575Z,7.7
2018-08-23T09:48:35.769Z,3.8
2018-08-23T09:53:38.045Z,7.2
2018-08-23T09:58:40.378Z,18.6
2018-08-23T10:03:42.701Z,9.6
2018-08-23T10:08:45.009Z,6.8
2018-08-23T10:13:47.318Z,8.8
2018-08-23T10:18:49.634Z,5.3
2018-08-23T10:23:51.952Z,8.2
2018-08-23T10:28:55.268Z,7
2018-08-23T10:33:56.414Z,3.2
2018-08-23T10:38:58.790Z,6.6
2018-08-23T10:44:01.001Z,6
2018-08-23T10:49:03.363Z,3.7
2018-08-23T10:54:05.696Z,7
2018-08-23T10:59:08.810Z,5.3
2018-08-23T11:04:10.120Z,6.3
2018-08-23T11:09:12.505Z,3.2
2018-08-23T11:14:14.871Z,6
2018-08-23T11:19:17.136Z,5.4
2018-08-23T11:24:19.451Z,3.2
2018-08-23T11:29:21.832Z,2.3
2018-08-23T11:34:24.015Z,4
2018-08-23T11:39:26.344Z,3.1
2018-08-23T11:44:28.526Z,2.1
2018-08-23T11:49:30.800Z,9.6
2018-08-23T11:54:33.164Z,2.4
2018-08-23T11:59:35.461Z,1.5
2018-08-23T12:04:37.668Z,2.2
2018-08-23T12:09:40.159Z,1.5
2018-08-23T12:14:42.382Z,1
2018-08-23T12:19:44.794Z,2.6
2018-08-23T12:24:48.770Z,2.4
2018-08-23T12:29:49.408Z,1.4
2018-08-23T12:34:51.657Z,1.8
2018-08-23T12:39:53.789Z,1.6
2018-08-23T12:44:56.064Z,3.9
2018-08-23T12:49:58.514Z,3.6
2018-08-23T12:55:00.730Z,1.5
2018-08-23T13:00:02.980Z,1.5
2018-08-23T13:05:05.299Z,1.9
2018-08-23T13:10:07.577Z,2.6
2018-08-23T13:15:09.886Z,1.5
2018-08-23T13:20:12.140Z,1.3
2018-08-23T13:25:14.458Z,1
2018-08-23T13:30:16.935Z,0.9
2018-08-23T13:35:19.054Z,0.5
2018-08-23T13:40:21.257Z,1.7
2018-08-23T13:45:23.725Z,1.6
2018-08-23T13:50:25.980Z,1
2018-08-23T13:55:28.198Z,0.3
2018-08-23T14:00:30.591Z,3.4
2018-08-23T14:05:34.279Z,0.9
2018-08-23T14:10:35.076Z,0.7
2018-08-23T14:15:37.343Z,0.7
2018-08-23T14:20:39.702Z,0.6
2018-08-23T14:25:42.157Z,1.7
2018-08-23T14:30:44.377Z,0.5
2018-08-23T14:35:46.563Z,4.8
2018-08-23T14:40:48.880Z,1.9
2018-08-23T14:45:51.276Z,3
2018-08-23T14:55:55.784Z,0.8
2018-08-23T15:00:58.137Z,1.3
2018-08-23T15:06:01.690Z,0.5
2018-08-23T15:11:02.837Z,0.6
2018-08-23T15:16:04.872Z,6.6
2018-08-23T15:21:07.197Z,1
2018-08-23T15:26:09.612Z,1
2018-08-23T15:31:11.772Z,1
2018-08-23T15:36:15.198Z,4.4
2018-08-23T15:41:16.403Z,0.2
2018-08-23T15:46:18.721Z,0.3
2018-08-23T15:51:21.039Z,0.8
2018-08-23T15:56:23.366Z,0.1
2018-08-23T16:01:25.595Z,0.4
2018-08-23T16:06:27.935Z,0.7
2018-08-23T16:11:30.151Z,0.5
2018-08-23T16:16:32.422Z,0.8
2018-08-23T16:21:34.777Z,0.3
2018-08-23T16:26:37.060Z,33.700001
2018-08-23T16:31:39.304Z,4.3
2018-08-23T16:36:41.603Z,2.1
2018-08-23T16:41:43.971Z,1.8
2018-08-23T16:46:46.302Z,6
2018-08-23T16:51:48.570Z,3.4
2018-08-23T16:56:50.981Z,0.7
2018-08-23T17:01:53.164Z,0.7
2018-08-23T17:06:55.514Z,1
2018-08-23T17:11:57.668Z,1.6
2018-08-23T17:17:00.063Z,16.700001
2018-08-23T17:22:02.219Z,8
2018-08-23T17:27:04.590Z,15.2
2018-08-23T17:32:07.036Z,7.7
2018-08-23T17:37:09.256Z,9.7
2018-08-23T17:42:11.463Z,1.7
2018-08-23T17:47:13.745Z,1
2018-08-23T17:52:16.055Z,0.9
2018-08-23T17:57:18.274Z,0.3
2018-08-23T18:02:20.841Z,0.3
2018-08-23T18:07:23.282Z,0.4
2018-08-23T18:12:25.402Z,0.2
2018-08-23T18:17:27.519Z,1.6
2018-08-23T18:22:30.357Z,2.4
2018-08-23T18:27:32.161Z,1.1
2018-08-23T18:32:34.377Z,2.6
2018-08-23T18:37:36.856Z,0.8
2018-08-23T18:42:39.126Z,1.1
2018-08-23T18:47:41.218Z,15.4
2018-08-23T18:52:43.579Z,0.7
2018-08-23T18:57:45.858Z,0.4
2018-08-23T19:02:48.359Z,0.1
2018-08-23T19:07:50.523Z,0.3
2018-08-23T19:12:52.767Z,0.7
2018-08-23T19:17:55.079Z,0.5
2018-08-23T19:22:57.389Z,0.4
2018-08-23T19:27:59.639Z,0.7
2018-08-23T19:33:01.994Z,0.8
2018-08-23T19:38:04.249Z,4.6
2018-08-23T19:43:06.505Z,0.5
2018-08-23T19:48:08.925Z,0.5
2018-08-23T19:53:12.184Z,0.4
2018-08-23T19:58:13.359Z,0.5
2018-08-23T20:03:15.749Z,0.7
2018-08-23T20:08:18.017Z,0.8
2018-08-23T20:13:20.229Z,1.3
2018-08-23T20:18:22.604Z,1.5
2018-08-23T20:23:25.013Z,2.3
2018-08-23T20:28:27.181Z,1.5
2018-08-23T20:33:29.411Z,10.4
2018-08-23T20:38:31.686Z,1.1
2018-08-23T20:43:34.070Z,0.8
2018-08-23T20:48:36.465Z,1.6
2018-08-23T20:53:38.597Z,0.7
2018-08-23T20:58:40.956Z,4.9
2018-08-23T21:03:43.274Z,2.3
2018-08-23T21:08:45.600Z,2.9
2018-08-23T21:13:47.754Z,1.9
2018-08-23T21:18:50.134Z,2.9
2018-08-23T21:23:52.446Z,3.4
2018-08-23T21:28:54.727Z,8.9
2018-08-23T21:33:56.999Z,3.9
2018-08-23T21:38:59.364Z,1.9
2018-08-23T21:44:01.681Z,4.7
2018-08-23T21:49:03.793Z,2.3
2018-08-23T21:54:06.724Z,3.2
2018-08-23T21:59:08.462Z,3.9
2018-08-23T22:04:10.748Z,4.5
2018-08-23T22:09:13.115Z,3.4
2018-08-23T22:14:15.465Z,2.8
2018-08-23T22:19:17.552Z,2.7
2018-08-23T22:24:19.918Z,7.2
2018-08-23T22:29:22.283Z,2.9
2018-08-23T22:34:24.539Z,3.4
2018-08-23T22:39:32.759Z,11
2018-08-23T22:44:29.124Z,9.9
2018-08-23T22:49:31.585Z,3.6
2018-08-23T22:54:33.880Z,1.2
2018-08-23T22:59:35.953Z,1.2
2018-08-23T23:04:38.276Z,1.7
2018-08-23T23:09:40.587Z,2.3
2018-08-23T23:14:42.848Z,0.3
2018-08-23T23:19:45.238Z,1.6
2018-08-23T23:24:47.425Z,1
2018-08-23T23:29:49.733Z,1.2
2018-08-23T23:34:52.220Z,2.1
2018-08-23T23:39:54.427Z,4.1
2018-08-23T23:44:56.680Z,10.6
2018-08-23T23:49:58.926Z,1.5
2018-08-23T23:55:01.412Z,3
